createdAt,value
2018-10-09T00:01:11.530Z,30.90
2018-10-09T00:03:42.534Z,31.90
2018-10-09T00:06:12.981Z,30.37
2018-10-09T00:08:48.145Z,30.60
2018-10-09T00:11:21.681Z,32.10
2018-10-09T00:13:58.349Z,30.60
2018-10-09T00:16:34.046Z,31.00
2018-10-09T00:19:07.932Z,29.07
2018-10-09T00:21:38.753Z,28.63
2018-10-09T00:24:09.573Z,32.30
2018-10-09T00:26:40.430Z,26.83
2018-10-09T00:29:10.137Z,27.87
2018-10-09T00:31:42.905Z,28.10
2018-10-09T00:34:12.705Z,27.67
2018-10-09T00:36:50.685Z,26.90
2018-10-09T00:39:21.991Z,28.17
2018-10-09T00:41:55.186Z,27.87
2018-10-09T00:44:29.517Z,26.70
2018-10-09T00:47:09.731Z,28.80
2018-10-09T00:49:47.137Z,28.03
2018-10-09T00:52:18.093Z,28.50
2018-10-09T00:57:37.809Z,28.00
2018-10-09T01:00:08.463Z,30.50
2018-10-09T01:02:47.761Z,29.97
2018-10-09T01:05:28.999Z,31.33
2018-10-09T01:08:03.566Z,34.70
2018-10-09T01:10:36.285Z,33.57
2018-10-09T01:13:12.210Z,33.17
2018-10-09T01:15:43.087Z,30.17
2018-10-09T01:18:17.589Z,27.87
2018-10-09T01:20:47.422Z,28.13
2018-10-09T01:23:18.018Z,28.33
2018-10-09T01:25:48.660Z,29.03
2018-10-09T01:28:21.894Z,31.40
2018-10-09T01:30:51.770Z,28.67
2018-10-09T01:33:22.406Z,27.70
2018-10-09T01:35:52.254Z,26.70
2018-10-09T01:38:22.162Z,27.93
2018-10-09T01:40:57.514Z,28.60
2018-10-09T01:43:28.538Z,23.97
2018-10-09T01:45:58.837Z,28.30
2018-10-09T01:48:28.946Z,26.77
2018-10-09T01:56:23.021Z,26.13
2018-10-09T01:58:56.221Z,25.03
2018-10-09T02:01:30.606Z,24.17
2018-10-09T02:04:01.982Z,27.07
2018-10-09T02:06:32.022Z,27.30
2018-10-09T02:09:04.618Z,27.27
2018-10-09T02:11:40.969Z,26.00
2018-10-09T02:14:13.801Z,23.33
2018-10-09T02:16:44.326Z,20.10
2018-10-09T02:19:14.954Z,20.60
2018-10-09T02:21:44.734Z,23.77
2018-10-09T02:24:14.322Z,25.83
2018-10-09T02:26:47.842Z,26.97
2018-10-09T02:29:18.730Z,28.63
2018-10-09T02:31:49.386Z,30.23
2018-10-09T02:34:19.974Z,29.00
2018-10-09T02:36:49.750Z,26.00
2018-10-09T02:39:20.361Z,26.73
2018-10-09T02:41:59.485Z,24.03
2018-10-09T02:44:28.993Z,25.13
2018-10-09T02:46:58.757Z,24.90
2018-10-09T02:49:28.682Z,27.43
2018-10-09T02:51:59.158Z,24.27
2018-10-09T02:54:30.038Z,27.10
2018-10-09T02:56:59.930Z,25.20
2018-10-09T02:59:30.773Z,24.60
2018-10-09T03:02:02.645Z,28.67
2018-10-09T03:04:33.515Z,24.83
2018-10-09T03:07:03.640Z,23.83
2018-10-09T03:09:34.538Z,21.67
2018-10-09T03:12:07.692Z,23.00
2018-10-09T03:14:38.645Z,23.30
2018-10-09T03:17:09.102Z,24.63
2018-10-09T03:19:39.002Z,25.63
2018-10-09T03:22:09.181Z,25.00
2018-10-09T03:24:39.022Z,27.00
2018-10-09T03:27:09.839Z,26.70
2018-10-09T03:29:43.745Z,27.77
2018-10-09T03:32:13.245Z,30.10
2018-10-09T03:34:50.473Z,29.70
2018-10-09T03:37:20.247Z,26.80
2018-10-09T03:39:50.093Z,25.17
2018-10-09T03:42:19.585Z,26.90
2018-10-09T03:44:50.077Z,28.20
2018-10-09T03:47:20.865Z,25.10
2018-10-09T03:49:50.657Z,25.77
2018-10-09T03:52:20.345Z,27.53
2018-10-09T03:54:51.213Z,26.50
2018-10-09T03:57:20.999Z,29.00
2018-10-09T03:59:50.829Z,26.20
2018-10-09T04:02:22.457Z,26.07
2018-10-09T04:04:57.761Z,28.00
2018-10-09T04:07:28.785Z,25.57
2018-10-09T04:09:59.677Z,23.00
2018-10-09T04:12:29.536Z,24.37
2018-10-09T04:14:59.321Z,24.83
2018-10-09T04:17:29.301Z,23.90
2018-10-09T04:20:00.145Z,22.53
2018-10-09T04:22:31.929Z,24.77
2018-10-09T04:25:01.841Z,23.17
2018-10-09T04:27:33.700Z,21.80
2018-10-09T04:30:04.709Z,24.27
2018-10-09T04:32:35.229Z,23.23
2018-10-09T04:35:05.121Z,25.03
2018-10-09T04:37:38.041Z,22.47
2018-10-09T04:40:07.937Z,26.03
2018-10-09T04:42:41.969Z,22.57
2018-10-09T04:45:12.737Z,22.75
2018-10-09T04:47:42.639Z,23.62
2018-10-09T04:50:15.929Z,25.20
2018-10-09T04:52:45.716Z,21.13
2018-10-09T04:55:15.585Z,24.70
2018-10-09T04:57:46.473Z,24.67
2018-10-09T05:00:16.469Z,27.17
2018-10-09T05:02:49.501Z,25.88
2018-10-09T05:05:19.469Z,29.20
2018-10-09T05:07:50.513Z,29.37
2018-10-09T05:10:24.257Z,28.90
2018-10-09T05:12:53.925Z,30.67
2018-10-09T05:15:24.993Z,31.20
2018-10-09T05:17:54.854Z,31.33
2018-10-09T05:20:24.774Z,31.10
2018-10-09T05:22:56.593Z,31.67
2018-10-09T05:25:27.155Z,32.10
2018-10-09T05:27:56.893Z,33.27
2018-10-09T05:30:27.793Z,34.60
2018-10-09T05:33:03.765Z,33.17
2018-10-09T05:35:33.476Z,29.20
2018-10-09T05:38:11.121Z,27.13
2018-10-09T05:40:41.896Z,26.63
2018-10-09T05:43:17.377Z,28.50
2018-10-09T05:45:52.181Z,26.50
2018-10-09T05:48:25.174Z,25.77
2018-10-09T05:50:58.080Z,26.63
2018-10-09T05:53:28.681Z,26.37
2018-10-09T05:56:01.465Z,25.73
2018-10-09T05:58:39.063Z,27.70
2018-10-09T06:01:10.813Z,27.97
2018-10-09T06:03:44.245Z,26.67
2018-10-09T06:06:13.709Z,28.90
2018-10-09T06:08:43.433Z,27.17
2018-10-09T06:11:18.833Z,26.60
2018-10-09T06:13:56.281Z,25.37
2018-10-09T06:16:27.097Z,27.67
2018-10-09T06:18:56.897Z,31.73
2018-10-09T06:21:27.734Z,31.40
2018-10-09T06:23:57.561Z,33.47
2018-10-09T06:26:27.361Z,33.27
2018-10-09T06:28:57.193Z,35.90
2018-10-09T06:31:27.997Z,31.87
2018-10-09T06:33:57.812Z,34.60
2018-10-09T06:36:27.633Z,33.47
2018-10-09T06:38:57.477Z,33.73
2018-10-09T06:41:28.314Z,33.63
2018-10-09T06:44:05.270Z,34.37
2018-10-09T06:46:34.987Z,33.83
2018-10-09T06:49:05.850Z,32.97
2018-10-09T06:51:35.756Z,36.43
2018-10-09T06:54:05.794Z,35.03
2018-10-09T06:56:36.493Z,34.47
2018-10-09T06:59:07.281Z,35.70
2018-10-09T07:01:39.145Z,37.00
2018-10-09T07:04:09.919Z,35.93
2018-10-09T07:06:39.741Z,36.37
2018-10-09T07:09:11.137Z,37.07
2018-10-09T07:11:42.768Z,36.97
2018-10-09T07:14:12.237Z,37.67
2018-10-09T07:16:45.073Z,36.90
2018-10-09T07:19:15.943Z,38.70
2018-10-09T07:21:45.777Z,40.63
2018-10-09T07:24:15.665Z,39.40
2018-10-09T07:26:46.465Z,39.57
2018-10-09T07:29:16.305Z,42.30
2018-10-09T07:31:46.137Z,44.90
2018-10-09T07:34:16.970Z,44.87
2018-10-09T07:36:48.769Z,46.07
2018-10-09T07:39:18.553Z,47.00
2018-10-09T07:41:56.389Z,46.17
2018-10-09T07:44:26.067Z,45.43
2018-10-09T07:46:56.465Z,46.60
2018-10-09T07:49:26.145Z,43.53
2018-10-09T07:51:57.008Z,46.77
2018-10-09T07:54:26.814Z,47.60
2018-10-09T07:56:56.674Z,48.20
2018-10-09T07:59:26.386Z,50.10
2018-10-09T08:01:56.213Z,53.10
2018-10-09T08:04:29.957Z,57.90
2018-10-09T08:06:59.789Z,55.97
2018-10-09T08:09:29.598Z,56.07
2018-10-09T08:11:59.385Z,59.10
2018-10-09T08:14:32.510Z,60.20
2018-10-09T08:17:02.462Z,59.70
2018-10-09T08:19:39.761Z,62.00
2018-10-09T08:22:11.590Z,59.30
2018-10-09T08:24:41.470Z,58.13
2018-10-09T08:27:11.069Z,61.60
2018-10-09T08:29:45.077Z,57.63
2018-10-09T08:32:16.882Z,59.33
2018-10-09T08:34:46.625Z,57.40
2018-10-09T08:37:23.142Z,57.40
2018-10-09T08:39:53.729Z,57.00
2018-10-09T08:42:23.421Z,56.40
2018-10-09T08:44:53.269Z,51.83
2018-10-09T08:47:23.081Z,48.67
2018-10-09T08:49:58.433Z,48.60
2018-10-09T08:52:28.201Z,40.00
2018-10-09T08:54:58.046Z,34.50
2018-10-09T08:57:27.702Z,33.80
2018-10-09T08:59:57.361Z,27.67
2018-10-09T09:02:27.130Z,29.87
2018-10-09T09:05:02.721Z,29.77
2018-10-09T09:07:40.590Z,29.83
2018-10-09T09:10:10.241Z,28.53
2018-10-09T09:12:41.102Z,25.03
2018-10-09T09:17:51.226Z,24.83
2018-10-09T09:20:24.852Z,24.73
2018-10-09T09:22:56.786Z,23.20
2018-10-09T09:25:26.758Z,23.03
2018-10-09T09:27:58.603Z,26.33
2018-10-09T09:30:38.689Z,25.63
2018-10-09T09:33:10.191Z,24.13
2018-10-09T09:35:40.921Z,24.30
2018-10-09T09:38:10.505Z,24.77
2018-10-09T09:40:43.826Z,23.77
2018-10-09T09:43:14.817Z,23.70
2018-10-09T09:45:47.836Z,24.97
2018-10-09T09:48:18.549Z,23.27
2018-10-09T09:50:49.421Z,21.93
2018-10-09T09:53:20.239Z,23.90
2018-10-09T09:55:53.855Z,22.27
2018-10-09T09:58:23.694Z,24.30
2018-10-09T10:00:59.065Z,22.20
2018-10-09T10:03:29.878Z,21.50
2018-10-09T10:06:00.677Z,23.40
2018-10-09T10:08:31.533Z,21.00
2018-10-09T10:11:01.418Z,22.73
2018-10-09T10:13:35.882Z,20.50
2018-10-09T10:16:05.661Z,19.30
2018-10-09T10:18:38.846Z,20.37
2018-10-09T10:21:17.745Z,19.20
2018-10-09T10:23:52.661Z,19.63
2018-10-09T10:26:23.613Z,17.77
2018-10-09T10:28:53.166Z,17.53
2018-10-09T10:31:22.965Z,17.57
2018-10-09T10:33:59.265Z,18.30
2018-10-09T10:36:30.969Z,17.87
2018-10-09T10:39:06.390Z,19.13
2018-10-09T10:41:36.118Z,16.37
2018-10-09T10:44:10.974Z,15.47
2018-10-09T10:46:41.965Z,17.27
2018-10-09T10:49:17.599Z,18.10
2018-10-09T10:51:48.262Z,17.23
2018-10-09T10:54:18.046Z,15.57
2018-10-09T10:56:48.898Z,16.10
2018-10-09T10:59:18.722Z,14.43
2018-10-09T11:01:48.556Z,15.40
2018-10-09T11:04:18.333Z,15.13
2018-10-09T11:06:51.241Z,14.30
2018-10-09T11:09:21.021Z,15.33
2018-10-09T11:11:51.669Z,15.80
2018-10-09T11:14:25.677Z,14.43
2018-10-09T11:16:55.493Z,13.57
2018-10-09T11:19:25.263Z,13.40
2018-10-09T11:21:55.039Z,12.73
2018-10-09T11:24:24.810Z,15.23
2018-10-09T11:26:57.709Z,15.53
2018-10-09T11:29:30.713Z,13.77
2018-10-09T11:32:01.535Z,12.77
2018-10-09T11:34:32.365Z,11.87
2018-10-09T11:37:02.165Z,12.63
2018-10-09T11:39:31.986Z,12.77
2018-10-09T11:42:04.981Z,12.70
2018-10-09T11:44:35.813Z,12.27
2018-10-09T11:47:05.673Z,12.83
2018-10-09T11:49:35.433Z,10.60
2018-10-09T11:52:05.249Z,11.57
2018-10-09T11:54:36.189Z,12.43
2018-10-09T11:57:05.997Z,12.43
2018-10-09T11:59:41.066Z,12.07
2018-10-09T12:02:14.309Z,11.13
2018-10-09T12:04:47.717Z,12.60
2018-10-09T12:07:17.533Z,11.20
2018-10-09T12:09:47.317Z,10.80
2018-10-09T12:12:17.085Z,11.43
2018-10-09T12:14:46.965Z,10.17
2018-10-09T12:17:16.745Z,11.00
2018-10-09T12:19:46.529Z,12.80
2018-10-09T12:22:16.763Z,12.23
2018-10-09T12:24:52.293Z,12.60
2018-10-09T12:27:22.157Z,11.17
2018-10-09T12:29:52.068Z,11.70
2018-10-09T12:32:21.841Z,13.17
2018-10-09T12:34:51.480Z,11.23
2018-10-09T12:37:21.197Z,11.47
2018-10-09T12:39:51.005Z,10.70
2018-10-09T12:42:21.665Z,10.93
2018-10-09T12:44:52.369Z,12.57
2018-10-09T12:47:25.277Z,10.90
2018-10-09T12:50:08.213Z,11.80
2018-10-09T12:52:45.295Z,11.17
2018-10-09T12:55:21.480Z,9.63
2018-10-09T12:57:57.845Z,11.67
2018-10-09T13:00:29.685Z,10.47
2018-10-09T13:03:03.228Z,9.80
2018-10-09T13:05:32.957Z,10.77
2018-10-09T13:08:02.813Z,10.83
2018-10-09T13:10:32.957Z,10.07
2018-10-09T13:13:04.617Z,9.00
2018-10-09T13:15:34.405Z,10.20
2018-10-09T13:18:06.200Z,10.00
2018-10-09T13:20:42.840Z,10.30
2018-10-09T13:23:13.605Z,10.53
2018-10-09T13:25:43.785Z,11.03
2018-10-09T13:28:13.660Z,10.73
2018-10-09T13:30:43.484Z,11.37
2018-10-09T13:33:13.297Z,10.70
2018-10-09T13:35:44.121Z,11.60
2018-10-09T13:38:14.762Z,9.80
2018-10-09T13:40:45.461Z,9.00
2018-10-09T13:43:21.608Z,9.70
2018-10-09T13:45:51.292Z,10.13
2018-10-09T13:48:21.157Z,10.80
2018-10-09T13:50:50.984Z,9.30
2018-10-09T13:53:28.756Z,9.23
2018-10-09T13:56:04.785Z,8.67
2018-10-09T13:58:34.668Z,8.97
2018-10-09T14:01:04.473Z,9.07
2018-10-09T14:03:37.852Z,9.30
2018-10-09T14:06:08.719Z,8.83
2018-10-09T14:08:43.196Z,8.30
2018-10-09T14:11:13.185Z,9.10
2018-10-09T14:13:44.049Z,9.93
2018-10-09T14:16:17.137Z,10.50
2018-10-09T14:18:48.713Z,9.10
2018-10-09T14:21:18.553Z,9.90
2018-10-09T14:23:48.429Z,8.77
2018-10-09T14:26:19.288Z,9.93
2018-10-09T14:28:49.113Z,9.13
2018-10-09T14:31:18.977Z,9.53
2018-10-09T14:33:49.717Z,9.33
2018-10-09T14:36:19.656Z,8.73
2018-10-09T14:38:49.444Z,9.60
2018-10-09T14:41:19.264Z,9.23
2018-10-09T14:43:49.035Z,9.20
2018-10-09T14:46:20.837Z,8.90
2018-10-09T14:48:56.305Z,9.10
2018-10-09T14:51:25.961Z,8.60
2018-10-09T14:53:55.681Z,9.63
2018-10-09T14:56:25.564Z,8.10
2018-10-09T14:58:55.312Z,8.03
2018-10-09T15:01:25.160Z,7.50
2018-10-09T15:03:55.011Z,8.50
2018-10-09T15:06:24.848Z,8.10
2018-10-09T15:08:58.217Z,8.10
2018-10-09T15:11:29.893Z,8.03
2018-10-09T15:13:59.332Z,7.57
2018-10-09T15:16:29.828Z,7.97
2018-10-09T15:18:59.272Z,8.50
2018-10-09T15:21:29.170Z,8.80
2018-10-09T15:23:58.916Z,8.80
2018-10-09T15:26:28.769Z,9.43
2018-10-09T15:28:58.857Z,10.53
2018-10-09T15:31:28.726Z,9.67
2018-10-09T15:33:58.524Z,9.57
2018-10-09T15:36:29.361Z,9.43
2018-10-09T15:39:02.437Z,9.47
2018-10-09T15:41:32.319Z,9.17
2018-10-09T15:44:07.781Z,10.27
2018-10-09T15:46:37.565Z,10.00
2018-10-09T15:49:08.108Z,10.70
2018-10-09T15:51:41.884Z,10.70
2018-10-09T15:54:11.439Z,11.10
2018-10-09T15:56:43.289Z,10.53
2018-10-09T15:59:13.017Z,10.77
2018-10-09T16:01:43.813Z,10.77
2018-10-09T16:04:38.241Z,11.50
2018-10-09T16:07:08.925Z,10.10
2018-10-09T16:09:42.457Z,11.20
2018-10-09T16:12:22.789Z,11.80
2018-10-09T16:14:57.829Z,12.80
2018-10-09T16:17:31.141Z,12.23
2018-10-09T16:20:00.661Z,12.93
2018-10-09T16:22:31.422Z,12.07
2018-10-09T16:25:00.941Z,12.57
2018-10-09T16:27:30.742Z,12.73
2018-10-09T16:30:00.612Z,13.00
2018-10-09T16:32:30.516Z,12.80
2018-10-09T16:35:07.165Z,13.73
2018-10-09T16:37:36.964Z,13.60
2018-10-09T16:40:06.748Z,14.33
2018-10-09T16:42:40.048Z,13.03
2018-10-09T16:45:09.627Z,14.10
2018-10-09T16:47:39.108Z,14.03
2018-10-09T16:50:08.639Z,14.23
2018-10-09T16:52:42.231Z,13.20
2018-10-09T16:55:15.419Z,13.93
2018-10-09T16:57:44.939Z,14.77
2018-10-09T17:00:14.523Z,15.27
2018-10-09T17:02:44.955Z,14.77
2018-10-09T17:05:20.551Z,14.70
2018-10-09T17:07:50.443Z,14.30
2018-10-09T17:10:23.715Z,15.13
2018-10-09T17:12:54.547Z,14.40
2018-10-09T17:15:25.615Z,15.40
2018-10-09T17:17:55.194Z,14.13
2018-10-09T17:20:28.147Z,14.40
2018-10-09T17:22:58.706Z,12.40
2018-10-09T17:25:28.455Z,14.40
2018-10-09T17:27:59.632Z,13.80
2018-10-09T17:30:29.283Z,14.70
2018-10-09T17:33:00.066Z,15.73
2018-10-09T17:35:29.840Z,14.60
2018-10-09T17:38:00.459Z,16.93
2018-10-09T17:40:30.160Z,15.10
2018-10-09T17:43:06.552Z,15.50
2018-10-09T17:45:37.596Z,16.03
2018-10-09T17:48:07.993Z,16.07
2018-10-09T17:50:42.672Z,16.63
2018-10-09T17:53:13.376Z,16.17
2018-10-09T17:55:43.200Z,16.20
2018-10-09T17:58:13.077Z,15.90
2018-10-09T18:00:42.949Z,15.60
2018-10-09T18:03:12.638Z,17.80
2018-10-09T18:05:46.037Z,17.47
2018-10-09T18:08:22.540Z,18.40
2018-10-09T18:10:55.645Z,18.73
2018-10-09T18:13:26.533Z,16.70
2018-10-09T18:15:56.480Z,18.00
2018-10-09T18:18:27.049Z,16.97
2018-10-09T18:20:58.605Z,18.60
2018-10-09T18:23:28.439Z,18.63
2018-10-09T18:25:58.345Z,17.57
2018-10-09T18:28:28.885Z,17.97
2018-10-09T18:30:58.727Z,18.43
2018-10-09T18:33:29.341Z,20.80
2018-10-09T18:35:58.916Z,18.40
2018-10-09T18:38:30.461Z,18.13
2018-10-09T18:41:01.052Z,18.87
2018-10-09T18:43:30.528Z,20.30
2018-10-09T18:46:03.305Z,20.47
2018-10-09T18:48:33.256Z,19.30
2018-10-09T18:51:04.264Z,17.90
2018-10-09T18:53:35.105Z,19.03
2018-10-09T18:56:05.009Z,20.80
2018-10-09T18:58:36.095Z,19.63
2018-10-09T19:01:07.989Z,19.87
2018-10-09T19:03:39.645Z,19.70
2018-10-09T19:06:11.536Z,20.33
2018-10-09T19:08:42.128Z,19.00
2018-10-09T19:11:12.013Z,20.00
2018-10-09T19:13:45.209Z,19.03
2018-10-09T19:16:14.884Z,19.47
2018-10-09T19:18:45.353Z,18.30
2018-10-09T19:21:16.125Z,20.30
2018-10-09T19:23:46.988Z,19.17
2018-10-09T19:26:17.834Z,18.67
2018-10-09T19:28:49.449Z,19.87
2018-10-09T19:31:19.320Z,21.60
2018-10-09T19:33:52.756Z,22.57
2018-10-09T19:36:22.721Z,23.40
2018-10-09T19:38:53.617Z,23.27
2018-10-09T19:41:23.557Z,22.70
2018-10-09T19:43:55.385Z,20.90
2018-10-09T19:46:31.676Z,22.57
2018-10-09T19:49:01.579Z,22.50
2018-10-09T19:51:32.638Z,21.73
2018-10-09T19:54:02.180Z,19.40
2018-10-09T19:56:32.301Z,21.40
2018-10-09T19:59:04.168Z,21.87
2018-10-09T20:01:37.705Z,21.43
2018-10-09T20:04:07.365Z,20.57
2018-10-09T20:06:38.152Z,24.87
2018-10-09T20:09:11.704Z,23.60
2018-10-09T20:11:41.644Z,23.97
2018-10-09T20:14:12.939Z,24.17
2018-10-09T20:16:43.864Z,22.97
2018-10-09T20:19:14.428Z,23.90
2018-10-09T20:21:44.172Z,23.47
2018-10-09T20:24:15.073Z,24.30
2018-10-09T20:26:44.917Z,22.53
2018-10-09T20:29:16.770Z,24.30
2018-10-09T20:31:46.769Z,21.50
2018-10-09T20:34:16.593Z,22.43
2018-10-09T20:36:48.502Z,23.20
2018-10-09T20:39:20.217Z,22.03
2018-10-09T20:41:50.138Z,22.33
2018-10-09T20:44:23.252Z,20.97
2018-10-09T20:46:53.117Z,22.80
2018-10-09T20:49:23.037Z,21.20
2018-10-09T20:51:53.985Z,20.63
2018-10-09T20:54:24.927Z,18.90
2018-10-09T20:56:54.825Z,20.50
2018-10-09T20:59:29.074Z,21.17
2018-10-09T21:02:00.014Z,20.83
2018-10-09T21:04:31.251Z,21.70
2018-10-09T21:07:04.545Z,21.10
2018-10-09T21:09:35.033Z,22.47
2018-10-09T21:12:04.813Z,20.83
2018-10-09T21:14:35.725Z,20.97
2018-10-09T21:17:05.754Z,21.83
2018-10-09T21:19:36.625Z,21.90
2018-10-09T21:22:07.559Z,21.03
2018-10-09T21:24:38.457Z,21.10
2018-10-09T21:27:10.104Z,21.57
2018-10-09T21:29:39.759Z,20.90
2018-10-09T21:32:09.565Z,22.37
2018-10-09T21:34:39.268Z,22.20
2018-10-09T21:37:09.956Z,20.87
2018-10-09T21:39:39.809Z,21.90
2018-10-09T21:42:09.693Z,20.60
2018-10-09T21:44:39.393Z,21.33
2018-10-09T21:47:09.985Z,20.13
2018-10-09T21:49:39.493Z,21.27
2018-10-09T21:52:10.281Z,22.30
2018-10-09T21:54:44.221Z,20.70
2018-10-09T21:57:14.984Z,21.50
2018-10-09T21:59:44.900Z,21.40
2018-10-09T22:02:19.746Z,20.90
2018-10-09T22:04:50.247Z,21.60
2018-10-09T22:07:23.685Z,22.17
2018-10-09T22:09:53.580Z,25.27
2018-10-09T22:12:25.623Z,23.10
2018-10-09T22:14:55.280Z,21.67
2018-10-09T22:17:25.180Z,22.47
2018-10-09T22:19:55.120Z,23.97
2018-10-09T22:22:26.184Z,23.17
2018-10-09T22:24:57.128Z,22.13
2018-10-09T22:27:30.540Z,23.33
2018-10-09T22:30:02.212Z,23.40
2018-10-09T22:32:34.039Z,24.57
2018-10-09T22:35:05.782Z,23.90
2018-10-09T22:37:36.636Z,23.03
2018-10-09T22:40:08.092Z,24.70
2018-10-09T22:42:41.435Z,27.40
2018-10-09T22:45:11.724Z,24.87
2018-10-09T22:47:41.473Z,27.50
2018-10-09T22:50:11.539Z,27.40
2018-10-09T22:52:44.415Z,26.57
2018-10-09T22:55:14.156Z,24.47
2018-10-09T22:57:49.460Z,24.77
2018-10-09T23:00:20.508Z,25.83
2018-10-09T23:02:50.223Z,25.63
2018-10-09T23:05:24.615Z,27.03
2018-10-09T23:07:55.648Z,28.37
2018-10-09T23:10:29.908Z,28.63
2018-10-09T23:12:59.795Z,28.60
2018-10-09T23:15:29.571Z,28.33
2018-10-09T23:17:59.289Z,31.80
2018-10-09T23:20:30.192Z,29.90
2018-10-09T23:23:00.852Z,28.90
2018-10-09T23:25:30.467Z,32.07
2018-10-09T23:28:00.084Z,29.37
2018-10-09T23:30:31.976Z,29.83
2018-10-09T23:33:02.868Z,28.47
2018-10-09T23:35:33.890Z,31.30
2018-10-09T23:38:05.684Z,29.70
2018-10-09T23:40:37.988Z,30.73
2018-10-09T23:43:08.721Z,28.87
2018-10-09T23:45:41.644Z,26.90
2018-10-09T23:48:12.641Z,27.80
2018-10-09T23:50:43.859Z,27.43
2018-10-09T23:53:15.336Z,28.33
2018-10-09T23:55:46.241Z,28.70
2018-10-09T23:58:17.162Z,29.27
